Alloway, NJ (08001)

9:06 PM EDT on March 28, 2015 (GMT -0400)
Pilesgrove | | Change Station
CLOSE
Current Station
Personal Weather Station
Location: Pilesgrove, NJ
Elevation: 62 ft
Nearby Weather Stations

Elev 62 ft 39.68 °N, 75.30 °W | Updated 47 seconds ago

Mostly Cloudy
Mostly Cloudy
31.0 °F
Feels Like 23 °F
N
9.0
Wind Variable Wind from WNW
Gusts 14.0 mph

Today
High -- | Low -- °F
--% Chance of Precip.
Yesterday
High -- | Low -- °F
Precip. -- in
6:52 AM 7:21 PM
Waxing Gibbous, 67% visible
Pressure 30.14 in
Visibility 10.0 miles
Clouds Mostly Cloudy 3900 ft
Mostly Cloudy 7000 ft
Windchill 23 °F
Dew Point 18 °F
Humidity 58%
Rainfall 0.00 in
Snow Depth Not available.
UV 0 out of 12
Pollen 8.60 out of 12
Air Quality Not available.
Flu Activity Not available.
METAR KILG 290051Z AUTO 31013KT 10SM BKN039 BKN070 M01/M08 A3013 RMK AO2 SLP204 T10111078 TSNO

More Conditions Fewer Conditions

Pressure 30.14 in
Visibility 10.0 miles
Clouds Mostly Cloudy 3900 ft
Mostly Cloudy 7000 ft
Windchill 23 °F
Dew Point 18 °F
Humidity 58%
Rainfall 0.00 in
Snow Depth Not available.
UV 0 out of 12
Pollen 8.60 out of 12
Air Quality Not available.
Flu Activity Not available.
METAR KILG 290051Z AUTO 31013KT 10SM BKN039 BKN070 M01/M08 A3013 RMK AO2 SLP204 T10111078 TSNO

More Conditions Fewer Conditions

Nowcast | as of 7:09 PM EDT on March 28, 2015

Isolated snow showers or flurries can be expected through the evening hours. No accumulation is expected. Northwest winds will continue to gust between 20 and 30 mph at times as temperatures continue to slowly drop.

×

10-Day Weather Forecast

Almanac

Astronomy

Mar. 28, 2015 Rise Set
Actual Time
Civil Twilight
Nautical Twilight
Astronomical Twilight
Moon
Length of Visible Light
Length of Day
Tomorrow will be .
, % of the Moon is Illuminated

Today's Extremes

State Highs State Lows

Community

WunderPhotos

Upload Photos

1,809,140 photos uploaded!

WunderBlogs® & News

Nearby

Air Quality

  Air Quality AQ Index Pollutant
Not available.

Snow Depth

Station Depth Elevation

Earthquake Activity

City Distance Mag. Time & Date
Minimum magnitude displayed is 2.5.

Coastal Water Temperatures

Place Temperature

Stations

Nearby Weather Stations

Station Location Temp. Windchill Dew Point Humidity Wind Precip. Elev Updated Type